sensor_id;sensor_type;location;lat;lon;timestamp;P1;durP1;ratioP1;P2;durP2;ratioP2
63902;SDS011;50072;50.678;13.938;2023-12-20T00:01:01;26.15;;;11.48;;
63902;SDS011;50072;50.678;13.938;2023-12-20T00:03:41;28.13;;;11.55;;
63902;SDS011;50072;50.678;13.938;2023-12-20T00:06:07;27.15;;;12.18;;
63902;SDS011;50072;50.678;13.938;2023-12-20T00:08:34;25.35;;;11.90;;
63902;SDS011;50072;50.678;13.938;2023-12-20T00:11:06;28.45;;;13.10;;
63902;SDS011;50072;50.678;13.938;2023-12-20T00:13:35;28.80;;;11.93;;
63902;SDS011;50072;50.678;13.938;2023-12-20T00:16:02;25.00;;;10.77;;
63902;SDS011;50072;50.678;13.938;2023-12-20T00:18:28;23.17;;;11.10;;
63902;SDS011;50072;50.678;13.938;2023-12-20T00:20:57;25.60;;;11.55;;
63902;SDS011;50072;50.678;13.938;2023-12-20T00:23:29;23.83;;;11.45;;
63902;SDS011;50072;50.678;13.938;2023-12-20T00:25:59;24.05;;;10.38;;
63902;SDS011;50072;50.678;13.938;2023-12-20T00:28:35;24.27;;;11.07;;
63902;SDS011;50072;50.678;13.938;2023-12-20T00:31:05;23.88;;;11.73;;
63902;SDS011;50072;50.678;13.938;2023-12-20T00:33:32;25.75;;;12.13;;
63902;SDS011;50072;50.678;13.938;2023-12-20T00:38:33;24.67;;;11.55;;
63902;SDS011;50072;50.678;13.938;2023-12-20T00:41:05;21.50;;;10.68;;
63902;SDS011;50072;50.678;13.938;2023-12-20T00:43:33;25.60;;;11.82;;
63902;SDS011;50072;50.678;13.938;2023-12-20T00:45:59;26.73;;;11.32;;
63902;SDS011;50072;50.678;13.938;2023-12-20T00:48:35;26.80;;;11.65;;
63902;SDS011;50072;50.678;13.938;2023-12-20T00:51:01;29.80;;;11.75;;
63902;SDS011;50072;50.678;13.938;2023-12-20T00:53:35;23.70;;;11.25;;
63902;SDS011;50072;50.678;13.938;2023-12-20T00:56:07;25.20;;;10.60;;
63902;SDS011;50072;50.678;13.938;2023-12-20T00:58:35;22.88;;;11.07;;
63902;SDS011;50072;50.678;13.938;2023-12-20T01:01:01;22.55;;;10.00;;
63902;SDS011;50072;50.678;13.938;2023-12-20T01:06:07;18.05;;;9.02;;
63902;SDS011;50072;50.678;13.938;2023-12-20T01:08:35;18.33;;;8.77;;
63902;SDS011;50072;50.678;13.938;2023-12-20T01:11:06;21.23;;;8.85;;
63902;SDS011;50072;50.678;13.938;2023-12-20T01:13:37;19.13;;;9.45;;
63902;SDS011;50072;50.678;13.938;2023-12-20T01:16:05;23.60;;;9.57;;
63902;SDS011;50072;50.678;13.938;2023-12-20T01:18:37;20.77;;;9.73;;
63902;SDS011;50072;50.678;13.938;2023-12-20T01:21:05;19.60;;;9.65;;
63902;SDS011;50072;50.678;13.938;2023-12-20T01:28:37;22.40;;;10.65;;
63902;SDS011;50072;50.678;13.938;2023-12-20T01:31:04;19.63;;;10.05;;
63902;SDS011;50072;50.678;13.938;2023-12-20T01:33:35;24.70;;;11.20;;
63902;SDS011;50072;50.678;13.938;2023-12-20T01:36:02;22.23;;;11.00;;
63902;SDS011;50072;50.678;13.938;2023-12-20T01:38:35;23.02;;;10.45;;
63902;SDS011;50072;50.678;13.938;2023-12-20T01:43:35;18.88;;;9.52;;
63902;SDS011;50072;50.678;13.938;2023-12-20T01:46:05;19.63;;;8.30;;
63902;SDS011;50072;50.678;13.938;2023-12-20T01:51:05;19.92;;;8.65;;
63902;SDS011;50072;50.678;13.938;2023-12-20T01:56:02;15.55;;;7.35;;
63902;SDS011;50072;50.678;13.938;2023-12-20T01:58:37;16.70;;;7.80;;
63902;SDS011;50072;50.678;13.938;2023-12-20T02:01:08;13.63;;;6.43;;
63902;SDS011;50072;50.678;13.938;2023-12-20T02:03:35;13.82;;;6.97;;
63902;SDS011;50072;50.678;13.938;2023-12-20T02:06:08;14.30;;;6.10;;
63902;SDS011;50072;50.678;13.938;2023-12-20T02:08:35;12.70;;;6.75;;
63902;SDS011;50072;50.678;13.938;2023-12-20T02:11:05;13.43;;;6.80;;
63902;SDS011;50072;50.678;13.938;2023-12-20T02:13:35;16.05;;;6.93;;
63902;SDS011;50072;50.678;13.938;2023-12-20T02:16:05;10.57;;;5.35;;
63902;SDS011;50072;50.678;13.938;2023-12-20T02:18:38;10.65;;;5.47;;
63902;SDS011;50072;50.678;13.938;2023-12-20T02:26:03;8.95;;;4.72;;
63902;SDS011;50072;50.678;13.938;2023-12-20T02:28:35;13.55;;;4.88;;
63902;SDS011;50072;50.678;13.938;2023-12-20T02:33:37;11.13;;;5.18;;
63902;SDS011;50072;50.678;13.938;2023-12-20T02:36:06;15.20;;;6.25;;
63902;SDS011;50072;50.678;13.938;2023-12-20T02:38:37;13.15;;;6.47;;
63902;SDS011;50072;50.678;13.938;2023-12-20T02:41:05;14.63;;;6.05;;
63902;SDS011;50072;50.678;13.938;2023-12-20T02:46:03;15.35;;;7.38;;
63902;SDS011;50072;50.678;13.938;2023-12-20T02:48:30;13.77;;;6.72;;
63902;SDS011;50072;50.678;13.938;2023-12-20T02:51:08;18.13;;;9.15;;
63902;SDS011;50072;50.678;13.938;2023-12-20T02:53:35;20.75;;;8.98;;
63902;SDS011;50072;50.678;13.938;2023-12-20T02:56:05;21.95;;;11.00;;
63902;SDS011;50072;50.678;13.938;2023-12-20T02:58:37;25.13;;;11.05;;
63902;SDS011;50072;50.678;13.938;2023-12-20T03:01:03;19.63;;;9.07;;
63902;SDS011;50072;50.678;13.938;2023-12-20T03:03:35;19.73;;;9.10;;
63902;SDS011;50072;50.678;13.938;2023-12-20T03:06:05;16.65;;;7.63;;
63902;SDS011;50072;50.678;13.938;2023-12-20T03:08:37;17.52;;;8.70;;
63902;SDS011;50072;50.678;13.938;2023-12-20T03:11:05;18.38;;;8.73;;
63902;SDS011;50072;50.678;13.938;2023-12-20T03:13:36;18.70;;;7.95;;
63902;SDS011;50072;50.678;13.938;2023-12-20T03:18:53;19.10;;;8.80;;
63902;SDS011;50072;50.678;13.938;2023-12-20T03:24:06;16.45;;;7.95;;
63902;SDS011;50072;50.678;13.938;2023-12-20T03:26:35;14.40;;;7.50;;
63902;SDS011;50072;50.678;13.938;2023-12-20T03:29:07;17.55;;;7.30;;
63902;SDS011;50072;50.678;13.938;2023-12-20T03:31:35;19.02;;;7.53;;
63902;SDS011;50072;50.678;13.938;2023-12-20T03:34:07;17.83;;;7.85;;
63902;SDS011;50072;50.678;13.938;2023-12-20T03:39:07;16.20;;;7.35;;
63902;SDS011;50072;50.678;13.938;2023-12-20T03:41:35;16.50;;;8.48;;
63902;SDS011;50072;50.678;13.938;2023-12-20T03:44:05;17.48;;;7.90;;
63902;SDS011;50072;50.678;13.938;2023-12-20T03:49:05;17.27;;;7.78;;
63902;SDS011;50072;50.678;13.938;2023-12-20T03:51:35;16.35;;;7.70;;
63902;SDS011;50072;50.678;13.938;2023-12-20T03:56:38;15.73;;;6.88;;
63902;SDS011;50072;50.678;13.938;2023-12-20T03:59:05;14.88;;;7.32;;
63902;SDS011;50072;50.678;13.938;2023-12-20T04:01:31;14.95;;;7.32;;
63902;SDS011;50072;50.678;13.938;2023-12-20T04:04:05;17.38;;;7.25;;
63902;SDS011;50072;50.678;13.938;2023-12-20T04:06:37;14.13;;;6.80;;
63902;SDS011;50072;50.678;13.938;2023-12-20T04:09:05;17.08;;;6.65;;
63902;SDS011;50072;50.678;13.938;2023-12-20T04:14:05;13.07;;;5.97;;
63902;SDS011;50072;50.678;13.938;2023-12-20T04:16:35;12.00;;;6.80;;
63902;SDS011;50072;50.678;13.938;2023-12-20T04:19:06;15.50;;;6.80;;
63902;SDS011;50072;50.678;13.938;2023-12-20T04:21:38;13.52;;;6.47;;
63902;SDS011;50072;50.678;13.938;2023-12-20T04:24:05;12.02;;;5.80;;
63902;SDS011;50072;50.678;13.938;2023-12-20T04:29:07;13.35;;;5.28;;
63902;SDS011;50072;50.678;13.938;2023-12-20T04:31:35;12.27;;;5.30;;
63902;SDS011;50072;50.678;13.938;2023-12-20T04:34:08;9.95;;;5.45;;
63902;SDS011;50072;50.678;13.938;2023-12-20T04:36:35;11.80;;;5.43;;
63902;SDS011;50072;50.678;13.938;2023-12-20T04:39:07;9.77;;;5.13;;
63902;SDS011;50072;50.678;13.938;2023-12-20T04:41:35;10.88;;;5.88;;
63902;SDS011;50072;50.678;13.938;2023-12-20T04:44:05;9.68;;;4.85;;
63902;SDS011;50072;50.678;13.938;2023-12-20T04:46:35;12.38;;;5.50;;
63902;SDS011;50072;50.678;13.938;2023-12-20T04:49:06;10.95;;;5.22;;
63902;SDS011;50072;50.678;13.938;2023-12-20T04:51:35;15.40;;;6.47;;
63902;SDS011;50072;50.678;13.938;2023-12-20T04:54:07;27.00;;;10.43;;
63902;SDS011;50072;50.678;13.938;2023-12-20T04:56:35;32.83;;;11.20;;
63902;SDS011;50072;50.678;13.938;2023-12-20T04:59:05;27.88;;;11.38;;
63902;SDS011;50072;50.678;13.938;2023-12-20T05:01:31;32.63;;;11.35;;
63902;SDS011;50072;50.678;13.938;2023-12-20T05:03:58;27.08;;;10.05;;
63902;SDS011;50072;50.678;13.938;2023-12-20T05:06:24;26.63;;;10.57;;
63902;SDS011;50072;50.678;13.938;2023-12-20T05:09:05;18.75;;;7.88;;
63902;SDS011;50072;50.678;13.938;2023-12-20T05:11:33;16.38;;;6.97;;
63902;SDS011;50072;50.678;13.938;2023-12-20T05:13:58;61.85;;;22.50;;
63902;SDS011;50072;50.678;13.938;2023-12-20T05:16:25;28.10;;;11.18;;
63902;SDS011;50072;50.678;13.938;2023-12-20T05:18:52;27.80;;;11.57;;
63902;SDS011;50072;50.678;13.938;2023-12-20T05:21:20;35.17;;;16.20;;
63902;SDS011;50072;50.678;13.938;2023-12-20T05:23:47;32.35;;;13.15;;
63902;SDS011;50072;50.678;13.938;2023-12-20T05:26:13;17.02;;;8.07;;
63902;SDS011;50072;50.678;13.938;2023-12-20T05:28:39;15.20;;;7.55;;
63902;SDS011;50072;50.678;13.938;2023-12-20T05:31:06;15.20;;;6.97;;
63902;SDS011;50072;50.678;13.938;2023-12-20T05:33:33;18.90;;;8.10;;
63902;SDS011;50072;50.678;13.938;2023-12-20T05:36:00;54.60;;;16.40;;
63902;SDS011;50072;50.678;13.938;2023-12-20T05:38:27;171.30;;;42.20;;
63902;SDS011;50072;50.678;13.938;2023-12-20T05:40:52;154.85;;;40.90;;
63902;SDS011;50072;50.678;13.938;2023-12-20T05:43:20;40.65;;;12.23;;
63902;SDS011;50072;50.678;13.938;2023-12-20T05:45:48;55.30;;;15.70;;
63902;SDS011;50072;50.678;13.938;2023-12-20T05:48:15;30.25;;;9.73;;
63902;SDS011;50072;50.678;13.938;2023-12-20T05:50:43;17.20;;;6.28;;
63902;SDS011;50072;50.678;13.938;2023-12-20T05:53:09;13.30;;;5.75;;
63902;SDS011;50072;50.678;13.938;2023-12-20T05:55:36;14.45;;;4.82;;
63902;SDS011;50072;50.678;13.938;2023-12-20T05:58:02;12.40;;;5.18;;
63902;SDS011;50072;50.678;13.938;2023-12-20T06:00:30;11.60;;;4.15;;
63902;SDS011;50072;50.678;13.938;2023-12-20T06:02:57;12.18;;;5.13;;
63902;SDS011;50072;50.678;13.938;2023-12-20T06:05:26;12.95;;;5.28;;
63902;SDS011;50072;50.678;13.938;2023-12-20T06:07:52;11.65;;;4.30;;
63902;SDS011;50072;50.678;13.938;2023-12-20T06:10:19;6.47;;;2.40;;
63902;SDS011;50072;50.678;13.938;2023-12-20T06:12:44;4.97;;;2.00;;
63902;SDS011;50072;50.678;13.938;2023-12-20T06:15:13;4.07;;;1.75;;
63902;SDS011;50072;50.678;13.938;2023-12-20T06:17:39;1.98;;;1.05;;
63902;SDS011;50072;50.678;13.938;2023-12-20T06:20:06;4.55;;;0.95;;
63902;SDS011;50072;50.678;13.938;2023-12-20T06:22:34;2.72;;;1.13;;
63902;SDS011;50072;50.678;13.938;2023-12-20T06:25:02;9.90;;;4.47;;
63902;SDS011;50072;50.678;13.938;2023-12-20T06:27:29;5.60;;;2.35;;
63902;SDS011;50072;50.678;13.938;2023-12-20T06:32:32;6.53;;;3.03;;
63902;SDS011;50072;50.678;13.938;2023-12-20T06:35:00;9.77;;;3.92;;
63902;SDS011;50072;50.678;13.938;2023-12-20T06:37:36;10.85;;;5.43;;
63902;SDS011;50072;50.678;13.938;2023-12-20T06:40:02;4.80;;;2.00;;
63902;SDS011;50072;50.678;13.938;2023-12-20T06:45:07;3.60;;;1.88;;
63902;SDS011;50072;50.678;13.938;2023-12-20T06:50:07;2.35;;;1.10;;
63902;SDS011;50072;50.678;13.938;2023-12-20T06:52:35;1.83;;;0.82;;
63902;SDS011;50072;50.678;13.938;2023-12-20T06:55:03;3.15;;;0.80;;
63902;SDS011;50072;50.678;13.938;2023-12-20T06:57:35;1.73;;;0.80;;
63902;SDS011;50072;50.678;13.938;2023-12-20T07:02:35;2.63;;;0.77;;
63902;SDS011;50072;50.678;13.938;2023-12-20T07:05:05;2.10;;;0.90;;
63902;SDS011;50072;50.678;13.938;2023-12-20T07:07:37;2.30;;;0.80;;
63902;SDS011;50072;50.678;13.938;2023-12-20T07:10:04;2.08;;;0.90;;
63902;SDS011;50072;50.678;13.938;2023-12-20T07:12:35;2.25;;;0.80;;
63902;SDS011;50072;50.678;13.938;2023-12-20T07:15:05;6.32;;;1.75;;
63902;SDS011;50072;50.678;13.938;2023-12-20T07:17:34;2.70;;;1.25;;
63902;SDS011;50072;50.678;13.938;2023-12-20T07:22:36;1.85;;;1.10;;
63902;SDS011;50072;50.678;13.938;2023-12-20T07:25:04;3.50;;;1.15;;
63902;SDS011;50072;50.678;13.938;2023-12-20T07:27:38;3.22;;;1.20;;
63902;SDS011;50072;50.678;13.938;2023-12-20T07:30:05;4.05;;;1.75;;
63902;SDS011;50072;50.678;13.938;2023-12-20T07:32:35;7.55;;;3.60;;
63902;SDS011;50072;50.678;13.938;2023-12-20T07:35:05;8.57;;;4.25;;
63902;SDS011;50072;50.678;13.938;2023-12-20T07:37:32;6.10;;;1.95;;
63902;SDS011;50072;50.678;13.938;2023-12-20T07:39:59;3.58;;;1.77;;
63902;SDS011;50072;50.678;13.938;2023-12-20T07:42:35;8.90;;;4.38;;
63902;SDS011;50072;50.678;13.938;2023-12-20T07:45:07;11.13;;;4.82;;
63902;SDS011;50072;50.678;13.938;2023-12-20T07:47:35;6.72;;;2.83;;
63902;SDS011;50072;50.678;13.938;2023-12-20T07:50:07;17.27;;;6.20;;
63902;SDS011;50072;50.678;13.938;2023-12-20T07:52:35;10.23;;;3.83;;
63902;SDS011;50072;50.678;13.938;2023-12-20T07:55:05;12.05;;;4.20;;
63902;SDS011;50072;50.678;13.938;2023-12-20T07:57:35;7.95;;;3.28;;
63902;SDS011;50072;50.678;13.938;2023-12-20T08:00:05;6.15;;;3.10;;
63902;SDS011;50072;50.678;13.938;2023-12-20T08:02:37;5.50;;;2.10;;
63902;SDS011;50072;50.678;13.938;2023-12-20T08:07:38;2.50;;;1.35;;
63902;SDS011;50072;50.678;13.938;2023-12-20T08:10:05;2.53;;;1.20;;
63902;SDS011;50072;50.678;13.938;2023-12-20T08:12:35;3.95;;;1.48;;
63902;SDS011;50072;50.678;13.938;2023-12-20T08:17:35;5.40;;;2.78;;
63902;SDS011;50072;50.678;13.938;2023-12-20T08:20:07;10.02;;;3.90;;
63902;SDS011;50072;50.678;13.938;2023-12-20T08:22:38;6.68;;;3.45;;
63902;SDS011;50072;50.678;13.938;2023-12-20T08:25:05;7.18;;;3.80;;
63902;SDS011;50072;50.678;13.938;2023-12-20T08:30:25;10.93;;;5.72;;
63902;SDS011;50072;50.678;13.938;2023-12-20T08:32:59;6.40;;;4.00;;
63902;SDS011;50072;50.678;13.938;2023-12-20T08:35:32;7.70;;;4.25;;
63902;SDS011;50072;50.678;13.938;2023-12-20T08:38:05;11.02;;;5.97;;
63902;SDS011;50072;50.678;13.938;2023-12-20T08:40:38;6.30;;;3.58;;
63902;SDS011;50072;50.678;13.938;2023-12-20T08:43:04;5.82;;;3.20;;
63902;SDS011;50072;50.678;13.938;2023-12-20T08:45:37;5.43;;;2.90;;
63902;SDS011;50072;50.678;13.938;2023-12-20T08:48:05;4.10;;;1.85;;
63902;SDS011;50072;50.678;13.938;2023-12-20T08:50:35;10.57;;;5.57;;
63902;SDS011;50072;50.678;13.938;2023-12-20T08:53:02;9.52;;;5.50;;
63902;SDS011;50072;50.678;13.938;2023-12-20T08:55:27;11.65;;;6.05;;
63902;SDS011;50072;50.678;13.938;2023-12-20T08:57:55;14.18;;;7.75;;
63902;SDS011;50072;50.678;13.938;2023-12-20T09:00:23;24.05;;;12.93;;
63902;SDS011;50072;50.678;13.938;2023-12-20T09:02:54;7.13;;;2.88;;
63902;SDS011;50072;50.678;13.938;2023-12-20T09:05:22;9.75;;;5.05;;
63902;SDS011;50072;50.678;13.938;2023-12-20T09:07:49;9.43;;;4.72;;
63902;SDS011;50072;50.678;13.938;2023-12-20T09:10:16;8.45;;;4.65;;
63902;SDS011;50072;50.678;13.938;2023-12-20T09:12:50;9.18;;;5.10;;
63902;SDS011;50072;50.678;13.938;2023-12-20T09:15:18;8.70;;;3.87;;
63902;SDS011;50072;50.678;13.938;2023-12-20T09:17:45;7.88;;;3.50;;
63902;SDS011;50072;50.678;13.938;2023-12-20T09:20:12;8.63;;;2.50;;
63902;SDS011;50072;50.678;13.938;2023-12-20T09:22:40;9.45;;;4.00;;
63902;SDS011;50072;50.678;13.938;2023-12-20T09:25:08;11.13;;;6.53;;
63902;SDS011;50072;50.678;13.938;2023-12-20T09:27:37;8.85;;;5.00;;
63902;SDS011;50072;50.678;13.938;2023-12-20T09:30:05;4.03;;;1.80;;
63902;SDS011;50072;50.678;13.938;2023-12-20T09:32:32;5.57;;;2.40;;
63902;SDS011;50072;50.678;13.938;2023-12-20T09:35:01;4.50;;;1.80;;
63902;SDS011;50072;50.678;13.938;2023-12-20T09:37:28;3.60;;;1.52;;
63902;SDS011;50072;50.678;13.938;2023-12-20T09:39:55;4.07;;;1.52;;
63902;SDS011;50072;50.678;13.938;2023-12-20T09:43:08;4.47;;;1.50;;
63902;SDS011;50072;50.678;13.938;2023-12-20T09:45:18;3.67;;;1.50;;
63902;SDS011;50072;50.678;13.938;2023-12-20T09:48:05;4.85;;;1.33;;
63902;SDS011;50072;50.678;13.938;2023-12-20T09:50:35;3.05;;;1.50;;
63902;SDS011;50072;50.678;13.938;2023-12-20T09:53:02;2.50;;;1.30;;
63902;SDS011;50072;50.678;13.938;2023-12-20T09:55:36;5.05;;;1.77;;
63902;SDS011;50072;50.678;13.938;2023-12-20T09:58:02;4.10;;;1.38;;
63902;SDS011;50072;50.678;13.938;2023-12-20T10:00:29;3.20;;;1.48;;
63902;SDS011;50072;50.678;13.938;2023-12-20T10:03:06;3.92;;;0.95;;
63902;SDS011;50072;50.678;13.938;2023-12-20T10:05:35;2.15;;;1.10;;
63902;SDS011;50072;50.678;13.938;2023-12-20T10:08:07;9.48;;;2.50;;
63902;SDS011;50072;50.678;13.938;2023-12-20T10:10:32;4.07;;;1.40;;
63902;SDS011;50072;50.678;13.938;2023-12-20T10:13:04;7.55;;;2.20;;
63902;SDS011;50072;50.678;13.938;2023-12-20T10:15:38;2.90;;;1.30;;
63902;SDS011;50072;50.678;13.938;2023-12-20T10:18:05;7.93;;;2.70;;
63902;SDS011;50072;50.678;13.938;2023-12-20T10:20:37;9.27;;;3.00;;
63902;SDS011;50072;50.678;13.938;2023-12-20T10:23:05;5.10;;;1.52;;
63902;SDS011;50072;50.678;13.938;2023-12-20T10:25:37;1.73;;;0.80;;
63902;SDS011;50072;50.678;13.938;2023-12-20T10:28:15;5.00;;;1.75;;
63902;SDS011;50072;50.678;13.938;2023-12-20T10:31:05;4.68;;;1.30;;
63902;SDS011;50072;50.678;13.938;2023-12-20T10:41:05;6.40;;;2.47;;
63902;SDS011;50072;50.678;13.938;2023-12-20T10:43:35;2.78;;;1.20;;
63902;SDS011;50072;50.678;13.938;2023-12-20T10:48:37;2.33;;;1.10;;
63902;SDS011;50072;50.678;13.938;2023-12-20T10:51:05;4.15;;;1.00;;
63902;SDS011;50072;50.678;13.938;2023-12-20T10:53:37;5.07;;;1.88;;
63902;SDS011;50072;50.678;13.938;2023-12-20T10:59:05;2.08;;;1.05;;
63902;SDS011;50072;50.678;13.938;2023-12-20T11:01:36;4.70;;;1.17;;
63902;SDS011;50072;50.678;13.938;2023-12-20T11:04:06;3.72;;;1.50;;
63902;SDS011;50072;50.678;13.938;2023-12-20T11:06:54;5.93;;;1.90;;
63902;SDS011;50072;50.678;13.938;2023-12-20T11:09:29;5.80;;;2.08;;
63902;SDS011;50072;50.678;13.938;2023-12-20T11:15:05;3.70;;;1.30;;
63902;SDS011;50072;50.678;13.938;2023-12-20T11:20:06;3.70;;;1.17;;
63902;SDS011;50072;50.678;13.938;2023-12-20T11:22:35;3.63;;;1.60;;
63902;SDS011;50072;50.678;13.938;2023-12-20T11:25:06;6.00;;;2.70;;
63902;SDS011;50072;50.678;13.938;2023-12-20T11:33:37;3.70;;;1.75;;
63902;SDS011;50072;50.678;13.938;2023-12-20T11:36:12;3.72;;;1.58;;
63902;SDS011;50072;50.678;13.938;2023-12-20T11:38:49;4.13;;;1.40;;
63902;SDS011;50072;50.678;13.938;2023-12-20T11:41:22;5.47;;;1.90;;
63902;SDS011;50072;50.678;13.938;2023-12-20T11:43:55;3.35;;;1.10;;
63902;SDS011;50072;50.678;13.938;2023-12-20T11:46:21;3.22;;;1.10;;
63902;SDS011;50072;50.678;13.938;2023-12-20T11:48:49;3.08;;;1.20;;
63902;SDS011;50072;50.678;13.938;2023-12-20T11:51:15;2.80;;;1.30;;
63902;SDS011;50072;50.678;13.938;2023-12-20T11:53:42;6.40;;;1.73;;
63902;SDS011;50072;50.678;13.938;2023-12-20T11:56:08;5.22;;;1.55;;
63902;SDS011;50072;50.678;13.938;2023-12-20T11:58:35;3.35;;;1.30;;
63902;SDS011;50072;50.678;13.938;2023-12-20T12:01:01;3.53;;;1.13;;
63902;SDS011;50072;50.678;13.938;2023-12-20T12:03:30;6.68;;;1.20;;
63902;SDS011;50072;50.678;13.938;2023-12-20T12:05:56;2.70;;;0.93;;
63902;SDS011;50072;50.678;13.938;2023-12-20T12:08:22;7.55;;;2.30;;
63902;SDS011;50072;50.678;13.938;2023-12-20T12:10:48;4.35;;;1.48;;
63902;SDS011;50072;50.678;13.938;2023-12-20T12:13:15;4.32;;;1.40;;
63902;SDS011;50072;50.678;13.938;2023-12-20T12:15:41;3.28;;;1.10;;
63902;SDS011;50072;50.678;13.938;2023-12-20T12:21:07;2.97;;;1.33;;
63902;SDS011;50072;50.678;13.938;2023-12-20T12:23:35;7.25;;;1.75;;
63902;SDS011;50072;50.678;13.938;2023-12-20T12:26:05;3.75;;;1.10;;
63902;SDS011;50072;50.678;13.938;2023-12-20T12:28:39;5.30;;;1.90;;
63902;SDS011;50072;50.678;13.938;2023-12-20T12:31:06;4.10;;;1.08;;
63902;SDS011;50072;50.678;13.938;2023-12-20T12:36:01;4.32;;;1.20;;
63902;SDS011;50072;50.678;13.938;2023-12-20T12:38:29;2.95;;;1.02;;
63902;SDS011;50072;50.678;13.938;2023-12-20T12:40:55;3.67;;;1.33;;
63902;SDS011;50072;50.678;13.938;2023-12-20T12:43:27;4.65;;;1.80;;
63902;SDS011;50072;50.678;13.938;2023-12-20T12:45:54;5.40;;;1.60;;
63902;SDS011;50072;50.678;13.938;2023-12-20T12:48:23;7.00;;;2.72;;
63902;SDS011;50072;50.678;13.938;2023-12-20T12:50:49;3.28;;;1.38;;
63902;SDS011;50072;50.678;13.938;2023-12-20T12:53:17;5.78;;;1.48;;
63902;SDS011;50072;50.678;13.938;2023-12-20T12:55:45;6.32;;;2.55;;
63902;SDS011;50072;50.678;13.938;2023-12-20T12:58:13;4.95;;;1.70;;
63902;SDS011;50072;50.678;13.938;2023-12-20T13:00:40;5.10;;;2.03;;
63902;SDS011;50072;50.678;13.938;2023-12-20T13:03:06;6.95;;;2.78;;
63902;SDS011;50072;50.678;13.938;2023-12-20T13:05:35;6.88;;;1.88;;
63902;SDS011;50072;50.678;13.938;2023-12-20T13:08:01;5.60;;;1.85;;
63902;SDS011;50072;50.678;13.938;2023-12-20T13:10:27;7.22;;;2.00;;
63902;SDS011;50072;50.678;13.938;2023-12-20T13:12:55;9.10;;;3.83;;
63902;SDS011;50072;50.678;13.938;2023-12-20T13:15:22;13.52;;;3.30;;
63902;SDS011;50072;50.678;13.938;2023-12-20T13:17:49;11.52;;;3.50;;
63902;SDS011;50072;50.678;13.938;2023-12-20T13:20:17;13.18;;;4.88;;
63902;SDS011;50072;50.678;13.938;2023-12-20T13:22:44;8.82;;;3.72;;
63902;SDS011;50072;50.678;13.938;2023-12-20T13:25:10;8.02;;;3.13;;
63902;SDS011;50072;50.678;13.938;2023-12-20T13:27:37;4.50;;;2.25;;
63902;SDS011;50072;50.678;13.938;2023-12-20T13:30:05;9.80;;;3.63;;
63902;SDS011;50072;50.678;13.938;2023-12-20T13:32:34;5.10;;;1.55;;
63902;SDS011;50072;50.678;13.938;2023-12-20T13:35:00;6.10;;;1.80;;
63902;SDS011;50072;50.678;13.938;2023-12-20T13:37:28;4.47;;;2.00;;
63902;SDS011;50072;50.678;13.938;2023-12-20T13:39:55;5.78;;;2.50;;
63902;SDS011;50072;50.678;13.938;2023-12-20T13:42:22;6.50;;;2.30;;
63902;SDS011;50072;50.678;13.938;2023-12-20T13:44:49;3.17;;;1.52;;
63902;SDS011;50072;50.678;13.938;2023-12-20T13:47:16;5.60;;;2.13;;
63902;SDS011;50072;50.678;13.938;2023-12-20T13:49:43;4.32;;;1.50;;
63902;SDS011;50072;50.678;13.938;2023-12-20T13:52:10;2.92;;;1.33;;
63902;SDS011;50072;50.678;13.938;2023-12-20T13:54:37;1.88;;;1.15;;
63902;SDS011;50072;50.678;13.938;2023-12-20T13:57:04;4.30;;;1.60;;
63902;SDS011;50072;50.678;13.938;2023-12-20T13:59:30;3.47;;;1.30;;
63902;SDS011;50072;50.678;13.938;2023-12-20T14:01:59;4.40;;;1.40;;
63902;SDS011;50072;50.678;13.938;2023-12-20T14:04:30;6.13;;;1.42;;
63902;SDS011;50072;50.678;13.938;2023-12-20T14:06:57;4.78;;;1.58;;
63902;SDS011;50072;50.678;13.938;2023-12-20T14:09:24;3.22;;;1.33;;
63902;SDS011;50072;50.678;13.938;2023-12-20T14:11:51;2.33;;;1.10;;
63902;SDS011;50072;50.678;13.938;2023-12-20T14:14:18;5.55;;;1.85;;
63902;SDS011;50072;50.678;13.938;2023-12-20T14:16:47;4.55;;;1.70;;
63902;SDS011;50072;50.678;13.938;2023-12-20T14:19:14;3.55;;;1.48;;
63902;SDS011;50072;50.678;13.938;2023-12-20T14:21:43;4.75;;;1.40;;
63902;SDS011;50072;50.678;13.938;2023-12-20T14:24:14;3.88;;;1.40;;
63902;SDS011;50072;50.678;13.938;2023-12-20T14:26:42;3.00;;;1.27;;
63902;SDS011;50072;50.678;13.938;2023-12-20T14:29:08;4.60;;;1.65;;
63902;SDS011;50072;50.678;13.938;2023-12-20T14:31:34;3.75;;;1.30;;
63902;SDS011;50072;50.678;13.938;2023-12-20T14:34:00;5.20;;;1.33;;
63902;SDS011;50072;50.678;13.938;2023-12-20T14:36:31;3.10;;;1.45;;
63902;SDS011;50072;50.678;13.938;2023-12-20T14:38:57;5.75;;;1.63;;
63902;SDS011;50072;50.678;13.938;2023-12-20T14:41:25;4.63;;;1.20;;
63902;SDS011;50072;50.678;13.938;2023-12-20T14:43:51;3.60;;;1.20;;
63902;SDS011;50072;50.678;13.938;2023-12-20T14:46:19;2.67;;;1.27;;
63902;SDS011;50072;50.678;13.938;2023-12-20T14:48:44;3.47;;;1.17;;
63902;SDS011;50072;50.678;13.938;2023-12-20T14:51:12;4.40;;;1.60;;
63902;SDS011;50072;50.678;13.938;2023-12-20T14:53:39;5.45;;;1.45;;
63902;SDS011;50072;50.678;13.938;2023-12-20T14:56:06;4.18;;;1.40;;
63902;SDS011;50072;50.678;13.938;2023-12-20T14:58:33;3.90;;;1.40;;
63902;SDS011;50072;50.678;13.938;2023-12-20T15:01:00;4.55;;;1.40;;
63902;SDS011;50072;50.678;13.938;2023-12-20T15:03:26;2.97;;;1.88;;
63902;SDS011;50072;50.678;13.938;2023-12-20T15:05:55;2.40;;;1.25;;
63902;SDS011;50072;50.678;13.938;2023-12-20T15:08:24;3.63;;;1.60;;
63902;SDS011;50072;50.678;13.938;2023-12-20T15:10:52;4.43;;;1.70;;
63902;SDS011;50072;50.678;13.938;2023-12-20T15:13:18;4.93;;;1.70;;
63902;SDS011;50072;50.678;13.938;2023-12-20T15:15:45;7.57;;;1.77;;
63902;SDS011;50072;50.678;13.938;2023-12-20T15:18:11;8.90;;;3.90;;
63902;SDS011;50072;50.678;13.938;2023-12-20T15:20:37;7.82;;;3.00;;
63902;SDS011;50072;50.678;13.938;2023-12-20T15:23:03;11.45;;;3.88;;
63902;SDS011;50072;50.678;13.938;2023-12-20T15:25:33;11.98;;;4.60;;
63902;SDS011;50072;50.678;13.938;2023-12-20T15:28:00;10.15;;;3.80;;
63902;SDS011;50072;50.678;13.938;2023-12-20T15:30:29;12.23;;;3.90;;
63902;SDS011;50072;50.678;13.938;2023-12-20T15:32:57;6.65;;;2.67;;
63902;SDS011;50072;50.678;13.938;2023-12-20T15:35:24;4.38;;;1.90;;
63902;SDS011;50072;50.678;13.938;2023-12-20T15:37:51;4.15;;;1.83;;
63902;SDS011;50072;50.678;13.938;2023-12-20T15:40:17;7.22;;;4.65;;
63902;SDS011;50072;50.678;13.938;2023-12-20T15:42:43;12.80;;;8.88;;
63902;SDS011;50072;50.678;13.938;2023-12-20T15:45:12;4.47;;;2.10;;
63902;SDS011;50072;50.678;13.938;2023-12-20T15:47:39;5.68;;;1.52;;
63902;SDS011;50072;50.678;13.938;2023-12-20T15:50:07;5.93;;;1.90;;
63902;SDS011;50072;50.678;13.938;2023-12-20T15:52:34;4.25;;;1.58;;
63902;SDS011;50072;50.678;13.938;2023-12-20T15:55:02;3.95;;;1.42;;
63902;SDS011;50072;50.678;13.938;2023-12-20T15:57:30;3.42;;;1.50;;
63902;SDS011;50072;50.678;13.938;2023-12-20T15:59:56;2.63;;;1.40;;
63902;SDS011;50072;50.678;13.938;2023-12-20T16:02:22;2.33;;;1.30;;
63902;SDS011;50072;50.678;13.938;2023-12-20T16:04:49;5.00;;;1.70;;
63902;SDS011;50072;50.678;13.938;2023-12-20T16:07:17;4.18;;;1.80;;
63902;SDS011;50072;50.678;13.938;2023-12-20T16:09:47;3.53;;;1.40;;
63902;SDS011;50072;50.678;13.938;2023-12-20T16:12:15;2.60;;;1.35;;
63902;SDS011;50072;50.678;13.938;2023-12-20T16:14:43;5.90;;;1.60;;